Time;durP1;ratioP1;P1;durP2;ratioP2;P2;SDS_P1;SDS_P2;PMS_P1;PMS_P2;Temp;Humidity;BMP_temperature;BMP_pressure;BME280_temperature;BME280_humidity;BME280_pressure;Samples;Min_cycle;Max_cycle;Signal;HPM_P1;HPM_P2
2022/09/13 00:01:13;;;;;;;10.70;7.18;;;;;;;19.14;100.00;100932.44;2615612;36;20292;-51
2022/09/13 00:03:41;;;;;;;10.73;7.32;;;;;;;19.15;100.00;100945.03;2616168;36;20034;-50
2022/09/13 00:06:12;;;;;;;10.27;7.60;;;;;;;19.13;100.00;100940.84;2615520;36;20598;-54
2022/09/13 00:08:41;;;;;;;12.15;7.53;;;;;;;19.08;100.00;100944.97;2615971;36;20038;-54
2022/09/13 00:11:09;;;;;;;11.13;7.38;;;;;;;19.08;100.00;100944.13;2614910;36;20081;-52
2022/09/13 00:13:37;;;;;;;11.30;8.65;;;;;;;19.05;100.00;100941.75;2615985;36;20031;-54
2022/09/13 00:16:13;;;;;;;10.40;7.47;;;;;;;19.08;100.00;100936.78;2613852;31;20078;-51
2022/09/13 00:18:42;;;;;;;10.25;7.57;;;;;;;19.10;100.00;100938.47;2616351;31;20571;-52
2022/09/13 00:21:13;;;;;;;11.18;7.32;;;;;;;19.11;100.00;100949.22;2615224;36;20045;-52
2022/09/13 00:23:41;;;;;;;12.48;8.70;;;;;;;19.28;100.00;100951.72;2616055;36;20023;-49
2022/09/13 00:26:12;;;;;;;11.68;7.40;;;;;;;19.10;100.00;100950.22;2615645;36;20415;-49
2022/09/13 00:28:41;;;;;;;10.00;7.35;;;;;;;19.10;100.00;100950.22;2616153;36;20030;-50
2022/09/13 00:31:12;;;;;;;11.43;7.38;;;;;;;19.07;100.00;100947.88;2607928;36;20077;-51
2022/09/13 00:33:41;;;;;;;13.95;7.10;;;;;;;19.00;100.00;100936.03;2615960;36;20037;-50
2022/09/13 00:36:11;;;;;;;10.32;6.88;;;;;;;19.02;100.00;100940.28;2616378;36;20061;-50
2022/09/13 00:38:40;;;;;;;12.02;7.07;;;;;;;19.00;100.00;100936.03;2608259;36;20034;-53
2022/09/13 00:41:12;;;;;;;8.95;6.80;;;;;;;18.96;100.00;100954.66;2614990;36;20057;-54
2022/09/13 00:43:47;;;;;;;10.38;7.68;;;;;;;18.88;100.00;100954.78;2615726;36;20042;-54
2022/09/13 00:46:27;;;;;;;9.48;7.32;;;;;;;18.89;100.00;100951.00;2610671;36;20034;-53
2022/09/13 00:49:02;;;;;;;10.18;7.28;;;;;;;18.85;100.00;100944.22;2609358;36;20046;-52
2022/09/13 00:51:32;;;;;;;10.60;7.13;;;;;;;18.85;100.00;100946.94;2609041;36;20041;-52
2022/09/13 00:54:02;;;;;;;9.70;6.95;;;;;;;18.86;100.00;100946.78;2608025;36;20841;-53
2022/09/13 00:56:36;;;;;;;12.90;7.35;;;;;;;18.96;100.00;100945.63;2607675;36;20613;-53
2022/09/13 00:59:09;;;;;;;10.65;8.40;;;;;;;18.96;100.00;100942.91;2608451;31;20035;-53
2022/09/13 01:01:46;;;;;;;13.48;8.38;;;;;;;18.94;100.00;100931.34;2612805;36;20085;-54
2022/09/13 01:04:14;;;;;;;14.63;8.60;;;;;;;18.89;100.00;100929.19;2609901;36;20060;-51
2022/09/13 01:06:44;;;;;;;12.18;7.72;;;;;;;18.89;100.00;100940.09;2607281;36;20716;-50
2022/09/13 01:09:14;;;;;;;11.18;8.10;;;;;;;18.90;100.00;100939.91;2607516;36;20030;-50
2022/09/13 01:11:49;;;;;;;12.27;8.68;;;;;;;18.89;100.00;100938.22;2606695;36;20034;-50
2022/09/13 01:14:19;;;;;;;12.30;8.02;;;;;;;18.81;100.00;100940.16;2607122;36;20555;-49
2022/09/13 01:16:50;;;;;;;12.27;8.65;;;;;;;18.71;100.00;100941.28;2607480;36;20046;-50
2022/09/13 01:19:19;;;;;;;16.55;8.35;;;;;;;18.74;100.00;100937.31;2607195;36;20085;-54
2022/09/13 01:22:33;;;;;;;13.25;8.85;;;;;;;18.68;100.00;100940.81;2606515;36;20038;-51
2022/09/13 01:25:27;;;;;;;12.68;8.48;;;;;;;18.62;100.00;100933.38;2607255;36;20089;-51
2022/09/13 01:28:17;;;;;;;14.32;9.02;;;;;;;18.59;100.00;100933.75;2607402;36;20969;-54
2022/09/13 01:30:58;;;;;;;13.13;8.57;;;;;;;18.60;100.00;100924.56;2607334;36;20069;-49
2022/09/13 01:33:43;;;;;;;11.98;8.30;;;;;;;18.57;100.00;100925.78;2613835;36;20419;-50
2022/09/13 01:36:31;;;;;;;10.50;7.60;;;;;;;18.53;100.00;100927.19;2614827;36;20030;-51
2022/09/13 01:39:05;;;;;;;10.20;7.35;;;;;;;18.50;100.00;100930.28;2609081;36;20031;-52
2022/09/13 01:42:01;;;;;;;14.38;8.73;;;;;;;18.46;100.00;100926.22;2614811;36;20030;-49
2022/09/13 01:44:41;;;;;;;13.18;8.13;;;;;;;18.39;100.00;100928.88;2610147;36;20042;-50
2022/09/13 01:47:26;;;;;;;12.75;7.90;;;;;;;18.35;100.00;100922.94;2601809;36;20566;-52
2022/09/13 01:50:04;;;;;;;12.35;7.97;;;;;;;18.36;100.00;100929.25;2611124;36;20039;-52
2022/09/13 01:52:42;;;;;;;14.77;9.63;;;;;;;18.35;100.00;100925.66;2607904;36;20046;-49
2022/09/13 01:55:19;;;;;;;15.18;9.00;;;;;;;18.34;100.00;100921.25;2610981;36;20038;-54
2022/09/13 01:57:54;;;;;;;13.63;8.30;;;;;;;18.28;100.00;100918.41;2609884;31;20038;-52
2022/09/13 02:00:23;;;;;;;16.20;9.77;;;;;;;18.35;100.00;100919.38;2605105;36;20045;-54
2022/09/13 02:03:00;;;;;;;14.10;8.18;;;;;;;18.34;100.00;100914.94;2608286;36;20520;-54
2022/09/13 02:05:34;;;;;;;13.95;8.80;;;;;;;18.31;100.00;100926.22;2607891;36;20575;-53
2022/09/13 02:08:07;;;;;;;14.48;8.57;;;;;;;18.31;100.00;100920.75;2607877;36;20042;-52
2022/09/13 02:10:40;;;;;;;16.10;9.38;;;;;;;18.31;100.00;100909.88;2607173;36;20038;-53
2022/09/13 02:13:14;;;;;;;15.32;10.23;;;;;;;18.31;100.00;100913.44;2611525;31;20034;-52
2022/09/13 02:15:46;;;;;;;11.95;8.40;;;;;;;18.36;100.00;100926.53;2607222;36;22228;-50
2022/09/13 02:18:23;;;;;;;13.80;9.30;;;;;;;18.37;100.00;100920.00;2607117;31;20756;-48
2022/09/13 02:20:55;;;;;;;15.63;9.50;;;;;;;18.37;100.00;100928.19;2607097;36;20038;-50
2022/09/13 02:23:30;;;;;;;12.35;8.45;;;;;;;18.41;100.00;100925.97;2607652;36;20069;-52
2022/09/13 02:26:00;;;;;;;12.15;8.77;;;;;;;18.42;100.00;100931.22;2606589;36;20030;-52
2022/09/13 02:28:33;;;;;;;12.38;8.25;;;;;;;18.46;100.00;100932.53;2606855;36;20038;-53
2022/09/13 02:31:04;;;;;;;14.30;9.50;;;;;;;18.49;100.00;100925.84;2606267;36;20046;-51
2022/09/13 02:33:40;;;;;;;14.55;9.55;;;;;;;18.51;100.00;100929.25;2607679;36;20072;-53
2022/09/13 02:36:14;;;;;;;13.35;8.70;;;;;;;18.55;100.00;100925.97;2608900;31;20431;-52
2022/09/13 02:38:50;;;;;;;14.13;8.75;;;;;;;18.54;100.00;100932.44;2607591;36;20763;-53
2022/09/13 02:41:27;;;;;;;14.75;9.27;;;;;;;18.59;100.00;100925.59;2606349;36;20033;-52
2022/09/13 02:44:02;;;;;;;15.10;8.57;;;;;;;18.55;100.00;100925.97;2607332;36;20031;-50
2022/09/13 02:46:44;;;;;;;13.38;8.88;;;;;;;18.53;100.00;100925.28;2599500;31;20038;-52
2022/09/13 02:49:26;;;;;;;15.25;9.70;;;;;;;18.50;100.00;100927.56;2608424;36;20034;-51
2022/09/13 02:52:00;;;;;;;13.23;8.38;;;;;;;18.51;100.00;100926.53;2606930;36;21855;-51
2022/09/13 02:54:35;;;;;;;16.27;9.30;;;;;;;18.52;100.00;100929.06;2606776;31;20614;-54
2022/09/13 02:57:09;;;;;;;13.13;8.18;;;;;;;18.53;100.00;100924.44;2600533;36;20191;-51
2022/09/13 02:59:38;;;;;;;10.85;7.75;;;;;;;18.52;100.00;100907.25;2607236;36;20078;-49
2022/09/13 03:02:10;;;;;;;15.30;10.63;;;;;;;18.39;100.00;100907.06;2606414;36;20039;-48
2022/09/13 03:04:41;;;;;;;15.93;9.73;;;;;;;18.35;100.00;100917.47;2606836;36;20597;-53
2022/09/13 03:07:12;;;;;;;15.23;9.75;;;;;;;18.34;100.00;100912.22;2607260;36;20338;-52
2022/09/13 03:09:47;;;;;;;14.90;10.23;;;;;;;18.34;100.00;100912.22;2606067;36;20076;-51
2022/09/13 03:12:33;;;;;;;15.70;10.48;;;;;;;18.37;100.00;100904.53;2605956;36;20041;-52
2022/09/13 03:15:12;;;;;;;17.15;10.20;;;;;;;18.36;100.00;100902.84;2608393;36;20536;-53
2022/09/13 03:17:57;;;;;;;13.50;9.38;;;;;;;18.39;100.00;100915.25;2607222;36;20026;-52
2022/09/13 03:20:42;;;;;;;16.75;10.18;;;;;;;18.43;100.00;100921.16;2607000;36;20045;-48
2022/09/13 03:23:22;;;;;;;16.65;9.45;;;;;;;18.46;100.00;100916.19;2608323;36;20414;-51
2022/09/13 03:26:25;;;;;;;17.92;10.13;;;;;;;18.40;100.00;100914.19;2607685;36;20038;-53
2022/09/13 03:29:00;;;;;;;15.88;9.90;;;;;;;18.43;100.00;100923.88;2607461;36;20578;-51
2022/09/13 03:31:34;;;;;;;14.90;9.73;;;;;;;18.45;100.00;100909.03;2607711;36;20069;-52
2022/09/13 03:34:11;;;;;;;16.60;11.13;;;;;;;18.47;100.00;100912.41;2609192;36;20085;-54
2022/09/13 03:36:47;;;;;;;16.60;11.00;;;;;;;18.36;100.00;100905.56;2609491;36;20038;-52
2022/09/13 03:39:25;;;;;;;18.15;10.60;;;;;;;18.40;100.00;100903.28;2608644;31;20035;-54
2022/09/13 03:41:57;;;;;;;15.90;10.70;;;;;;;18.41;100.00;100904.16;2607723;36;20065;-51
2022/09/13 03:44:28;;;;;;;18.48;10.63;;;;;;;18.35;100.00;100901.13;2608015;36;20075;-53
2022/09/13 03:47:01;;;;;;;17.98;11.85;;;;;;;18.34;100.00;100904.91;2608245;31;20538;-55
2022/09/13 03:49:31;;;;;;;16.45;10.93;;;;;;;18.27;100.00;100903.97;2613171;36;20744;-54
2022/09/13 03:52:06;;;;;;;18.60;11.13;;;;;;;18.21;100.00;100905.53;2611326;36;20466;-54
2022/09/13 03:54:40;;;;;;;17.45;10.80;;;;;;;18.19;100.00;100906.75;2609541;36;20166;-54
2022/09/13 03:57:11;;;;;;;15.95;10.25;;;;;;;18.08;100.00;100905.31;2640113;36;20061;-55
2022/09/13 03:59:40;;;;;;;16.98;9.77;;;;;;;18.02;100.00;100911.47;2608727;36;20034;-54
2022/09/13 04:02:10;;;;;;;14.60;9.93;;;;;;;18.04;100.00;100906.72;2607770;36;20034;-54
2022/09/13 04:04:39;;;;;;;15.77;10.35;;;;;;;18.01;100.00;100907.09;2609782;36;20034;-53
2022/09/13 04:07:11;;;;;;;15.80;10.23;;;;;;;17.97;100.00;100905.75;2602453;31;20125;-53
2022/09/13 04:09:40;;;;;;;15.55;10.43;;;;;;;18.03;100.00;100907.75;2607390;36;20056;-53
2022/09/13 04:12:09;;;;;;;16.33;10.67;;;;;;;18.01;100.00;100920.72;2606422;31;20073;-54
2022/09/13 04:14:37;;;;;;;15.15;9.68;;;;;;;17.96;100.00;100914.94;2607546;36;20334;-53
2022/09/13 04:17:06;;;;;;;17.38;9.93;;;;;;;17.93;100.00;100908.03;2607901;36;20077;-49
2022/09/13 04:19:34;;;;;;;18.45;11.05;;;;;;;17.92;100.00;100910.91;2606588;36;20035;-52
2022/09/13 04:22:03;;;;;;;16.00;9.65;;;;;;;17.91;100.00;100920.94;2605842;36;20135;-54
2022/09/13 04:24:35;;;;;;;16.08;10.40;;;;;;;17.91;100.00;100914.66;2607005;36;20041;-53
2022/09/13 04:27:03;;;;;;;15.52;10.15;;;;;;;17.92;100.00;100919.06;2607345;36;20042;-52
2022/09/13 04:29:32;;;;;;;16.77;10.00;;;;;;;17.95;100.00;100932.34;2607928;36;20066;-53
2022/09/13 04:32:01;;;;;;;16.10;9.73;;;;;;;18.01;100.00;100923.44;2607096;31;20038;-52
2022/09/13 04:34:29;;;;;;;15.80;10.07;;;;;;;17.98;100.00;100924.63;2608401;36;20069;-52
2022/09/13 04:36:58;;;;;;;15.97;10.20;;;;;;;17.93;100.00;100924.34;2609795;36;20042;-50
2022/09/13 04:39:27;;;;;;;15.02;9.85;;;;;;;17.92;100.00;100921.78;2607877;36;20316;-53
2022/09/13 04:41:58;;;;;;;22.90;10.00;;;;;;;17.83;100.00;100927.28;2607988;36;20431;-51
2022/09/13 04:44:26;;;;;;;15.73;9.55;;;;;;;17.74;100.00;100930.25;2608259;36;20035;-50
2022/09/13 04:46:55;;;;;;;14.88;10.13;;;;;;;17.67;100.00;100924.69;2609188;31;20082;-51
2022/09/13 04:49:23;;;;;;;14.17;10.23;;;;;;;17.66;100.00;100934.72;2608215;36;20034;-51
2022/09/13 04:51:51;;;;;;;13.93;10.25;;;;;;;17.64;100.00;100941.38;2608467;36;20419;-50
2022/09/13 04:54:23;;;;;;;18.53;11.97;;;;;;;17.71;100.00;100936.06;2610107;36;20427;-53
2022/09/13 04:56:51;;;;;;;22.48;13.10;;;;;;;17.70;100.00;100940.66;2608849;36;20423;-51
2022/09/13 04:59:22;;;;;;;23.40;14.43;;;;;;;17.68;100.00;100937.25;2609657;31;20030;-53
2022/09/13 05:01:51;;;;;;;17.83;11.52;;;;;;;17.67;100.00;100950.03;2609449;36;20307;-51
2022/09/13 05:04:19;;;;;;;18.42;12.02;;;;;;;17.74;100.00;100942.00;2607384;36;20034;-50
2022/09/13 05:06:47;;;;;;;21.45;13.25;;;;;;;17.82;100.00;100939.19;2602466;36;20046;-51
2022/09/13 05:09:16;;;;;;;22.50;14.13;;;;;;;17.86;100.00;100945.97;2608537;36;20030;-54
2022/09/13 05:11:45;;;;;;;20.48;14.07;;;;;;;17.88;100.00;100947.69;2602309;31;20758;-48
2022/09/13 05:14:14;;;;;;;18.60;13.05;;;;;;;17.86;100.00;100943.25;2608633;36;20050;-51
2022/09/13 05:16:45;;;;;;;19.38;13.70;;;;;;;17.87;100.00;100944.09;2610474;36;20125;-53
2022/09/13 05:19:13;;;;;;;17.95;12.02;;;;;;;17.81;100.00;100948.38;2609197;36;20073;-53
2022/09/13 05:21:42;;;;;;;22.60;14.20;;;;;;;17.72;100.00;100952.19;2610002;36;20038;-53
2022/09/13 05:24:13;;;;;;;23.58;14.65;;;;;;;17.68;100.00;100957.19;2609523;36;20065;-52
2022/09/13 05:26:42;;;;;;;23.67;14.93;;;;;;;17.82;100.00;100957.41;2607174;36;20591;-51
2022/09/13 05:29:10;;;;;;;22.23;13.80;;;;;;;17.88;100.00;100953.97;2607284;31;20061;-51
2022/09/13 05:31:40;;;;;;;20.90;14.07;;;;;;;17.92;100.00;100955.31;2608200;36;20605;-50
2022/09/13 05:34:14;;;;;;;21.55;14.50;;;;;;;18.02;100.00;100955.94;2607730;36;20042;-51
2022/09/13 05:36:43;;;;;;;25.35;13.43;;;;;;;18.08;100.00;100962.53;2610206;36;20069;-53
2022/09/13 05:39:14;;;;;;;;;;;;;;;18.02;100.00;100965.97;2608120;36;20046;-53
2022/09/13 05:41:42;;;;;;;21.73;13.27;;;;;;;18.01;100.00;100961.56;2607297;36;20593;-53
2022/09/13 05:44:10;;;;;;;26.30;14.73;;;;;;;18.08;100.00;100964.38;2615158;31;20023;-50
2022/09/13 05:46:39;;;;;;;22.20;15.00;;;;;;;18.06;100.00;100975.47;2615701;31;20036;-51
2022/09/13 05:49:07;;;;;;;25.17;16.33;;;;;;;18.15;100.00;100968.06;2615314;36;20042;-48
2022/09/13 05:51:38;;;;;;;23.83;15.70;;;;;;;18.19;100.00;100972.97;2615403;36;20061;-52
2022/09/13 05:54:06;;;;;;;29.15;15.70;;;;;;;18.21;100.00;100970.91;2614985;36;20300;-49
2022/09/13 05:56:35;;;;;;;27.30;17.05;;;;;;;18.35;100.00;100971.13;2615317;36;20038;-51
2022/09/13 05:59:03;;;;;;;24.13;15.68;;;;;;;18.44;100.00;100970.03;2615577;36;20532;-52
2022/09/13 06:01:31;;;;;;;24.77;15.67;;;;;;;18.43;100.00;100972.94;2615071;36;20039;-50
2022/09/13 06:04:00;;;;;;;26.70;16.43;;;;;;;18.52;100.00;100967.22;2616427;36;20034;-52
2022/09/13 06:06:29;;;;;;;26.38;17.13;;;;;;;18.50;100.00;100972.00;2615809;36;20045;-51
2022/09/13 06:09:00;;;;;;;30.40;16.35;;;;;;;18.58;100.00;100962.91;2614789;36;20034;-49
2022/09/13 06:11:28;;;;;;;32.15;18.88;;;;;;;18.50;100.00;100969.28;2608293;36;20027;-51
2022/09/13 06:13:57;;;;;;;28.58;17.70;;;;;;;18.50;100.00;100979.34;2615810;36;20106;-54
2022/09/13 06:16:25;;;;;;;25.85;16.40;;;;;;;18.61;100.00;100978.03;2615407;36;20030;-54
2022/09/13 06:18:53;;;;;;;26.58;16.58;;;;;;;18.60;100.00;100985.38;2607973;36;20451;-53
2022/09/13 06:21:24;;;;;;;28.88;17.60;;;;;;;18.67;100.00;100985.47;2615894;31;20542;-52
2022/09/13 06:23:55;;;;;;;27.55;16.83;;;;;;;18.71;100.00;100986.78;2614697;31;20415;-49
2022/09/13 06:26:27;;;;;;;25.00;16.05;;;;;;;18.79;100.00;100992.16;2615204;36;20046;-50
2022/09/13 06:28:58;;;;;;;24.92;14.82;;;;;;;18.82;100.00;100990.94;2615458;36;20551;-52
2022/09/13 06:31:28;;;;;;;25.80;14.80;;;;;;;18.85;100.00;100996.03;2614800;31;20022;-50
2022/09/13 06:33:59;;;;;;;33.45;15.85;;;;;;;18.99;100.00;100999.81;2615526;36;20093;-52
2022/09/13 06:36:27;;;;;;;22.67;14.50;;;;;;;18.98;100.00;101003.59;2614959;36;20129;-51
2022/09/13 06:38:59;;;;;;;25.38;16.02;;;;;;;18.95;100.00;101009.38;2614983;36;20037;-59
2022/09/13 06:41:30;;;;;;;26.30;15.13;;;;;;;19.05;100.00;101001.78;2615180;36;20616;-54
2022/09/13 06:44:00;;;;;;;25.17;16.08;;;;;;;19.17;100.00;101004.88;2611740;36;20050;-52
2022/09/13 06:46:30;;;;;;;27.35;15.73;;;;;;;19.22;100.00;101006.00;2610453;31;20590;-51
2022/09/13 06:49:03;;;;;;;24.80;14.25;;;;;;;19.30;100.00;100990.56;2609036;36;20030;-55
2022/09/13 06:51:31;;;;;;;24.15;13.85;;;;;;;19.38;100.00;100999.50;2608729;36;20035;-56
2022/09/13 06:54:01;;;;;;;23.15;13.82;;;;;;;19.53;100.00;100994.00;2607592;36;22230;-54
2022/09/13 06:56:33;;;;;;;17.45;12.02;;;;;;;19.61;100.00;100991.16;2606900;36;20041;-50
2022/09/13 06:59:04;;;;;;;21.50;12.55;;;;;;;19.81;100.00;100993.28;2608011;36;20042;-53
2022/09/13 07:01:34;;;;;;;19.48;12.07;;;;;;;19.91;100.00;100999.28;2608586;36;20034;-54
2022/09/13 07:04:04;;;;;;;16.38;10.80;;;;;;;20.01;100.00;100995.38;2607810;36;20585;-51
2022/09/13 07:06:34;;;;;;;15.70;10.20;;;;;;;20.15;100.00;100994.47;2607944;36;20037;-53
2022/09/13 07:09:06;;;;;;;19.13;10.40;;;;;;;20.28;100.00;100994.56;2607174;36;20467;-53
2022/09/13 07:11:39;;;;;;;13.75;10.55;;;;;;;20.31;100.00;100983.25;2607461;36;20022;-53
2022/09/13 07:14:09;;;;;;;17.10;9.52;;;;;;;20.37;100.00;100992.53;2608567;31;20074;-55
2022/09/13 07:16:39;;;;;;;14.88;9.52;;;;;;;20.39;100.00;100989.63;2608248;36;20061;-53
2022/09/13 07:19:12;;;;;;;14.70;9.35;;;;;;;20.45;100.00;100983.34;2601356;36;20041;-55
2022/09/13 07:21:40;;;;;;;13.82;8.65;;;;;;;20.43;100.00;100985.44;2607972;36;20087;-49
2022/09/13 07:24:09;;;;;;;10.63;7.20;;;;;;;20.52;100.00;100989.72;2605355;31;20134;-51
2022/09/13 07:26:40;;;;;;;12.65;7.88;;;;;;;20.23;100.00;100997.06;2601227;36;20050;-52
2022/09/13 07:29:11;;;;;;;11.55;7.60;;;;;;;20.42;100.00;100994.69;2607477;36;20046;-52
2022/09/13 07:31:40;;;;;;;14.27;7.78;;;;;;;20.43;100.00;100996.38;2607798;36;20061;-53
2022/09/13 07:34:13;;;;;;;11.98;7.57;;;;;;;20.36;100.00;101003.69;2605506;36;20599;-50
2022/09/13 07:36:41;;;;;;;13.20;7.28;;;;;;;20.46;100.00;101006.91;2605967;36;20556;-51
2022/09/13 07:39:10;;;;;;;14.02;6.85;;;;;;;20.39;100.00;100998.69;2607881;36;20580;-50
2022/09/13 07:41:41;;;;;;;12.60;6.90;;;;;;;20.52;100.00;101003.38;2607595;36;20073;-52
2022/09/13 07:44:11;;;;;;;13.93;5.65;;;;;;;20.57;100.00;100998.19;2607668;36;20585;-54
2022/09/13 07:46:42;;;;;;;8.82;5.90;;;;;;;20.83;100.00;100996.69;2607255;36;20038;-51
2022/09/13 07:49:11;;;;;;;8.75;4.82;;;;;;;20.85;100.00;100991.88;2606094;36;20065;-51
2022/09/13 07:51:40;;;;;;;;;;;;;;;21.07;100.00;100989.03;2611791;36;20035;-50
2022/09/13 07:54:11;;;;;;;12.60;5.28;;;;;;;21.08;100.00;100988.00;2607205;36;19950;-49
2022/09/13 07:56:42;;;;;;;6.70;4.13;;;;;;;21.35;100.00;100984.34;2607745;36;20035;-53
2022/09/13 07:59:15;;;;;;;8.65;4.68;;;;;;;21.69;100.00;100998.19;2607965;36;20456;-53
2022/09/13 08:01:45;;;;;;;8.50;3.65;;;;;;;21.53;100.00;101000.22;2608479;36;20038;-52
2022/09/13 08:04:16;;;;;;;5.70;3.53;;;;;;;21.82;100.00;100991.88;2606503;36;20035;-50
2022/09/13 08:06:45;;;;;;;5.35;3.30;;;;;;;21.87;100.00;100997.59;2608500;31;20041;-51
2022/09/13 08:09:14;;;;;;;4.07;3.25;;;;;;;22.35;100.00;101000.22;2608278;36;20134;-53
2022/09/13 08:11:46;;;;;;;3.72;2.78;;;;;;;22.37;100.00;101003.56;2608225;32;20066;-51
2022/09/13 08:14:17;;;;;;;6.72;2.40;;;;;;;21.97;100.00;101008.16;2608755;36;20054;-51
2022/09/13 08:16:45;;;;;;;3.85;2.05;;;;;;;21.94;100.00;101012.16;2608060;36;20023;-52
2022/09/13 08:19:16;;;;;;;4.10;1.52;;;;;;;21.88;100.00;101010.25;2608874;36;20050;-54
2022/09/13 08:21:45;;;;;;;3.22;1.30;;;;;;;21.68;100.00;101016.50;2609564;31;20035;-50
2022/09/13 08:24:16;;;;;;;2.80;1.13;;;;;;;21.70;100.00;101013.56;2608263;31;20772;-49
2022/09/13 08:26:47;;;;;;;3.03;1.13;;;;;;;21.82;100.00;101011.91;2601398;36;20034;-53
2022/09/13 08:29:19;;;;;;;2.63;1.00;;;;;;;21.75;100.00;101010.22;2601746;36;20038;-52
2022/09/13 08:31:50;;;;;;;3.88;1.20;;;;;;;;;;2612329;39;20430;-51
2022/09/13 08:34:20;;;;;;;2.50;1.13;;;;;;;22.23;100.00;101018.28;2610334;31;20355;-50
2022/09/13 08:36:48;;;;;;;2.10;1.10;;;;;;;22.39;100.00;101014.34;2609964;36;20039;-54
2022/09/13 08:39:16;;;;;;;2.75;1.15;;;;;;;22.63;100.00;101015.59;2608652;36;20476;-53
2022/09/13 08:42:13;;;;;;;2.72;1.20;;;;;;;22.85;100.00;101015.34;2607496;36;20034;-50
2022/09/13 08:44:47;;;;;;;2.28;1.20;;;;;;;22.98;100.00;101014.47;2609737;36;20639;-53
2022/09/13 08:47:33;;;;;;;2.63;1.17;;;;;;;22.99;100.00;101018.91;2608817;36;20045;-53
2022/09/13 08:50:08;;;;;;;3.10;0.95;;;;;;;22.71;100.00;101020.03;2608178;36;20057;-52
2022/09/13 08:52:47;;;;;;;3.38;1.00;;;;;;;22.52;100.00;101022.56;2607751;36;20038;-50
2022/09/13 08:55:26;;;;;;;1.70;1.10;;;;;;;22.57;100.00;101025.53;2606217;36;20606;-49
2022/09/13 08:58:07;;;;;;;3.60;0.90;;;;;;;22.44;100.00;101025.53;2608033;36;20034;-54
2022/09/13 09:00:41;;;;;;;3.85;1.40;;;;;;;22.66;100.00;101028.03;2624386;36;20412;-53
2022/09/13 09:03:20;;;;;;;2.72;1.25;;;;;;;22.46;100.00;101023.41;2609934;36;20431;-50
2022/09/13 09:05:51;;;;;;;3.08;1.20;;;;;;;22.47;100.00;101019.63;2607915;36;20062;-52
2022/09/13 09:08:30;;;;;;;3.35;1.05;;;;;;;22.31;100.00;101018.09;2608438;31;20029;-52
2022/09/13 09:11:02;;;;;;;2.40;0.93;;;;;;;22.54;100.00;101022.34;2608943;36;20460;-51
2022/09/13 09:13:37;;;;;;;2.28;0.90;;;;;;;22.61;100.00;101020.44;2607894;36;20081;-53
2022/09/13 09:16:12;;;;;;;2.22;1.10;;;;;;;22.32;100.00;101022.56;2607226;36;20045;-51
2022/09/13 09:18:45;;;;;;;3.03;1.20;;;;;;;22.07;100.00;101019.56;2608290;36;20062;-52
2022/09/13 09:21:18;;;;;;;2.15;1.02;;;;;;;22.29;100.00;101028.44;2608175;36;20604;-55
2022/09/13 09:23:52;;;;;;;4.88;1.35;;;;;;;22.57;100.00;101031.00;2607647;31;20073;-54
2022/09/13 09:26:25;;;;;;;2.60;0.85;;;;;;;22.55;100.00;101029.53;2609020;31;20427;-49
2022/09/13 09:29:01;;;;;;;2.80;1.30;;;;;;;22.81;100.00;101014.13;2617173;36;20046;-54
2022/09/13 09:31:41;;;;;;;4.13;1.30;;;;;;;22.64;100.00;101016.44;2607397;36;20034;-49
2022/09/13 09:34:21;;;;;;;1.13;0.80;;;;;;;22.74;100.00;101014.09;2602014;36;20069;-51
2022/09/13 09:36:56;;;;;;;2.20;1.08;;;;;;;22.77;100.00;101024.66;2610021;36;20042;-53
2022/09/13 09:39:31;;;;;;;3.15;0.88;;;;;;;22.94;100.00;101025.06;2608380;36;20042;-52
2022/09/13 09:42:03;;;;;;;3.72;1.08;;;;;;;22.98;100.00;101026.31;2609320;36;20562;-52
2022/09/13 09:44:34;;;;;;;2.20;0.93;;;;;;;22.96;100.00;101022.09;2608344;31;20041;-52
2022/09/13 09:47:16;;;;;;;4.13;1.15;;;;;;;23.01;100.00;101023.16;2610928;36;20057;-54
2022/09/13 09:52:39;;;;;;;3.08;1.25;;;;;;;23.07;100.00;101018.66;2611441;36;20076;-49
2022/09/13 09:55:20;;;;;;;4.28;1.08;;;;;;;23.33;100.00;101023.28;2611501;54;20574;-49
2022/09/13 09:57:58;;;;;;;3.00;1.23;;;;;;;23.27;100.00;101007.66;2613269;31;20524;-52
2022/09/13 10:00:31;;;;;;;1.45;0.93;;;;;;;23.20;100.00;101017.84;2608932;36;20059;-53
2022/09/13 10:03:07;;;;;;;1.92;0.85;;;;;;;23.37;100.00;101012.72;2607947;36;20034;-54
2022/09/13 10:05:37;;;;;;;2.75;0.90;;;;;;;23.37;100.00;101004.47;2607759;31;20643;-52
2022/09/13 10:08:08;;;;;;;2.00;1.00;;;;;;;23.69;100.00;101010.88;2606729;36;20034;-52
2022/09/13 10:10:42;;;;;;;4.82;1.30;;;;;;;23.67;100.00;101007.47;2607002;36;20038;-52
2022/09/13 10:13:18;;;;;;;2.03;0.95;;;;;;;23.97;100.00;101004.19;2605833;36;20027;-54
2022/09/13 10:16:01;;;;;;;1.77;1.00;;;;;;;23.74;100.00;101008.28;2624350;36;20054;-50
2022/09/13 10:18:31;;;;;;;2.40;1.40;;;;;;;23.59;100.00;101005.00;2606864;36;20038;-52
2022/09/13 10:21:05;;;;;;;1.85;1.00;;;;;;;23.39;100.00;101000.44;2607591;36;20061;-49
2022/09/13 10:23:35;;;;;;;4.40;1.13;;;;;;;23.44;100.00;101000.63;2607250;36;20069;-52
2022/09/13 10:26:07;;;;;;;2.53;1.20;;;;;;;23.18;100.00;101004.31;2624869;36;20045;-52
2022/09/13 10:28:46;;;;;;;3.30;1.10;;;;;;;23.39;100.00;100996.84;2607217;31;20034;-53
2022/09/13 10:31:19;;;;;;;2.30;1.00;;;;;;;23.48;100.00;100995.53;2608608;31;20440;-52
2022/09/13 10:33:58;;;;;;;3.17;1.20;;;;;;;23.90;100.00;101003.38;2600562;36;20435;-51
2022/09/13 10:36:31;;;;;;;5.25;1.10;;;;;;;24.09;100.00;100999.66;2609885;36;20041;-51
2022/09/13 10:39:02;;;;;;;5.57;1.15;;;;;;;23.81;100.00;101011.00;2608157;31;20512;-49
2022/09/13 10:41:33;;;;;;;4.32;1.20;;;;;;;23.78;100.00;101008.72;2602521;36;20041;-50
2022/09/13 10:44:03;;;;;;;1.70;0.88;;;;;;;23.48;100.00;101001.03;2607759;36;20424;-52
2022/09/13 10:46:41;;;;;;;5.55;0.90;;;;;;;23.80;100.00;101004.66;2607086;36;20039;-52
2022/09/13 10:49:37;;;;;;;2.90;0.82;;;;;;;23.72;100.00;100999.44;2605529;36;20626;-54
2022/09/13 10:52:27;;;;;;;4.40;1.10;;;;;;;23.96;100.00;101010.75;2607287;36;20423;-53
2022/09/13 10:54:56;;;;;;;2.75;0.98;;;;;;;24.34;100.00;101012.59;2605125;36;20065;-50
2022/09/13 10:57:33;;;;;;;;;;;;;;;24.48;100.00;101008.66;2606885;36;20459;-52
2022/09/13 11:00:01;;;;;;;2.08;1.10;;;;;;;24.11;100.00;101011.25;2606771;31;19958;-54
2022/09/13 11:02:48;;;;;;;2.92;1.50;;;;;;;24.16;100.00;101007.88;2606091;31;22043;-51
2022/09/13 11:05:25;;;;;;;1.60;1.10;;;;;;;24.39;100.00;101003.66;2606109;36;20034;-51
2022/09/13 11:08:35;;;;;;;3.50;0.75;;;;;;;24.02;100.00;101009.84;2607065;36;20081;-50
2022/09/13 11:11:17;;;;;;;3.95;1.17;;;;;;;23.91;100.00;101007.81;2607168;36;20054;-53
2022/09/13 11:14:12;;;;;;;4.00;1.25;;;;;;;23.83;100.00;101003.38;2607541;36;20046;-52
2022/09/13 11:16:53;;;;;;;3.20;1.10;;;;;;;23.56;100.00;100999.94;2607342;36;20089;-52
2022/09/13 11:19:44;;;;;;;2.35;1.00;;;;;;;23.87;100.00;100999.16;2606585;36;20138;-50
2022/09/13 11:22:35;;;;;;;4.25;1.10;;;;;;;24.40;100.00;100994.34;2608685;36;20043;-52
2022/09/13 11:25:15;;;;;;;4.00;1.02;;;;;;;24.24;100.00;100991.06;2607084;36;20030;-55
2022/09/13 11:27:51;;;;;;;1.25;0.90;;;;;;;24.23;100.00;100996.78;2607337;31;20026;-54
2022/09/13 11:30:22;;;;;;;2.03;1.10;;;;;;;24.14;100.00;100986.09;2606424;36;20043;-56
2022/09/13 11:33:19;;;;;;;4.20;1.10;;;;;;;24.33;100.00;100990.81;2607446;36;20038;-50
2022/09/13 11:36:17;;;;;;;4.32;1.15;;;;;;;24.23;100.00;100996.78;2609093;36;20045;-52
2022/09/13 11:38:57;;;;;;;1.13;0.90;;;;;;;24.24;100.00;100995.75;2607465;36;20417;-51
2022/09/13 11:41:34;;;;;;;3.42;0.95;;;;;;;24.35;100.00;100989.53;2602948;36;21053;-51
2022/09/13 11:44:27;;;;;;;2.45;1.02;;;;;;;24.12;100.00;100984.63;2607659;31;20849;-52